sensor_id;sensor_type;location;lat;lon;timestamp;P1;durP1;ratioP1;P2;durP2;ratioP2
71821;SDS011;64096;52.548;13.406;2024-02-15T06:04:29;7.25;;;5.95;;
71821;SDS011;64096;52.548;13.406;2024-02-15T06:06:55;6.60;;;5.57;;
71821;SDS011;64096;52.548;13.406;2024-02-15T06:09:25;6.53;;;5.70;;
71821;SDS011;64096;52.548;13.406;2024-02-15T06:11:52;6.72;;;5.57;;
71821;SDS011;64096;52.548;13.406;2024-02-15T06:14:20;6.45;;;5.40;;
71821;SDS011;64096;52.548;13.406;2024-02-15T06:16:46;6.70;;;5.53;;
71821;SDS011;64096;52.548;13.406;2024-02-15T06:19:14;7.20;;;5.82;;
71821;SDS011;64096;52.548;13.406;2024-02-15T06:21:40;6.60;;;5.57;;
71821;SDS011;64096;52.548;13.406;2024-02-15T06:24:06;7.13;;;5.97;;
71821;SDS011;64096;52.548;13.406;2024-02-15T06:26:32;7.30;;;6.20;;
71821;SDS011;64096;52.548;13.406;2024-02-15T06:28:59;6.18;;;5.53;;
71821;SDS011;64096;52.548;13.406;2024-02-15T06:31:44;8.25;;;6.40;;
71821;SDS011;64096;52.548;13.406;2024-02-15T06:34:28;7.00;;;6.20;;
71821;SDS011;64096;52.548;13.406;2024-02-15T06:37:22;7.93;;;6.03;;
71821;SDS011;64096;52.548;13.406;2024-02-15T06:40:18;6.70;;;5.88;;
71821;SDS011;64096;52.548;13.406;2024-02-15T06:42:44;6.78;;;5.88;;
71821;SDS011;64096;52.548;13.406;2024-02-15T06:45:10;7.30;;;6.00;;
71821;SDS011;64096;52.548;13.406;2024-02-15T06:47:40;7.32;;;5.70;;
71821;SDS011;64096;52.548;13.406;2024-02-15T06:50:09;7.70;;;6.25;;
71821;SDS011;64096;52.548;13.406;2024-02-15T06:52:36;7.35;;;6.57;;
71821;SDS011;64096;52.548;13.406;2024-02-15T06:55:03;8.18;;;6.35;;
71821;SDS011;64096;52.548;13.406;2024-02-15T06:57:29;7.10;;;6.10;;
71821;SDS011;64096;52.548;13.406;2024-02-15T06:59:55;6.25;;;5.47;;
71821;SDS011;64096;52.548;13.406;2024-02-15T07:02:21;6.70;;;5.90;;
71821;SDS011;64096;52.548;13.406;2024-02-15T07:04:48;8.13;;;6.93;;
71821;SDS011;64096;52.548;13.406;2024-02-15T07:07:14;7.10;;;5.50;;
71821;SDS011;64096;52.548;13.406;2024-02-15T07:09:42;6.70;;;5.45;;
71821;SDS011;64096;52.548;13.406;2024-02-15T07:12:08;7.32;;;6.15;;
71821;SDS011;64096;52.548;13.406;2024-02-15T07:14:34;7.30;;;5.63;;
71821;SDS011;64096;52.548;13.406;2024-02-15T07:17:00;6.80;;;5.13;;
71821;SDS011;64096;52.548;13.406;2024-02-15T07:19:26;6.95;;;5.75;;
71821;SDS011;64096;52.548;13.406;2024-02-15T07:21:52;6.60;;;5.47;;
71821;SDS011;64096;52.548;13.406;2024-02-15T07:24:19;7.00;;;5.75;;
71821;SDS011;64096;52.548;13.406;2024-02-15T07:26:45;6.88;;;5.93;;
71821;SDS011;64096;52.548;13.406;2024-02-15T07:29:11;7.40;;;5.93;;
71821;SDS011;64096;52.548;13.406;2024-02-15T07:31:40;7.00;;;5.90;;
71821;SDS011;64096;52.548;13.406;2024-02-15T07:34:06;6.20;;;5.20;;
71821;SDS011;64096;52.548;13.406;2024-02-15T07:36:32;6.03;;;5.05;;
71821;SDS011;64096;52.548;13.406;2024-02-15T07:38:58;6.47;;;5.40;;
71821;SDS011;64096;52.548;13.406;2024-02-15T07:41:26;6.10;;;5.00;;
71821;SDS011;64096;52.548;13.406;2024-02-15T07:43:54;6.90;;;5.60;;
71821;SDS011;64096;52.548;13.406;2024-02-15T07:46:23;7.18;;;6.13;;
71821;SDS011;64096;52.548;13.406;2024-02-15T07:48:49;6.57;;;5.70;;
71821;SDS011;64096;52.548;13.406;2024-02-15T07:51:16;16.27;;;13.35;;
71821;SDS011;64096;52.548;13.406;2024-02-15T07:53:43;9.75;;;7.55;;
71821;SDS011;64096;52.548;13.406;2024-02-15T07:56:10;7.32;;;5.57;;
71821;SDS011;64096;52.548;13.406;2024-02-15T07:58:42;8.15;;;5.43;;
71821;SDS011;64096;52.548;13.406;2024-02-15T08:01:14;6.97;;;5.28;;
71821;SDS011;64096;52.548;13.406;2024-02-15T08:03:41;6.40;;;5.40;;
71821;SDS011;64096;52.548;13.406;2024-02-15T08:06:12;6.10;;;5.03;;
71821;SDS011;64096;52.548;13.406;2024-02-15T08:08:40;6.13;;;5.13;;
71821;SDS011;64096;52.548;13.406;2024-02-15T08:11:07;6.50;;;5.13;;
71821;SDS011;64096;52.548;13.406;2024-02-15T08:13:43;6.82;;;5.25;;
71821;SDS011;64096;52.548;13.406;2024-02-15T08:16:10;5.43;;;4.70;;
71821;SDS011;64096;52.548;13.406;2024-02-15T08:18:37;7.82;;;5.60;;
71821;SDS011;64096;52.548;13.406;2024-02-15T08:21:04;6.85;;;5.18;;
71821;SDS011;64096;52.548;13.406;2024-02-15T08:23:30;6.03;;;4.72;;
71821;SDS011;64096;52.548;13.406;2024-02-15T08:25:57;6.25;;;4.82;;
71821;SDS011;64096;52.548;13.406;2024-02-15T08:28:23;6.72;;;4.82;;
71821;SDS011;64096;52.548;13.406;2024-02-15T08:30:51;5.93;;;5.22;;
71821;SDS011;64096;52.548;13.406;2024-02-15T08:33:17;13.98;;;10.05;;
71821;SDS011;64096;52.548;13.406;2024-02-15T08:35:44;12.27;;;8.38;;
71821;SDS011;64096;52.548;13.406;2024-02-15T08:38:10;5.80;;;4.70;;
71821;SDS011;64096;52.548;13.406;2024-02-15T08:40:37;6.30;;;4.88;;
71821;SDS011;64096;52.548;13.406;2024-02-15T08:43:03;6.00;;;4.90;;
71821;SDS011;64096;52.548;13.406;2024-02-15T08:45:29;5.85;;;4.38;;
71821;SDS011;64096;52.548;13.406;2024-02-15T08:47:55;5.53;;;4.65;;
71821;SDS011;64096;52.548;13.406;2024-02-15T08:50:21;5.72;;;4.45;;
71821;SDS011;64096;52.548;13.406;2024-02-15T08:52:48;7.53;;;6.50;;
71821;SDS011;64096;52.548;13.406;2024-02-15T08:55:15;8.27;;;7.00;;
71821;SDS011;64096;52.548;13.406;2024-02-15T08:57:42;7.82;;;6.38;;
71821;SDS011;64096;52.548;13.406;2024-02-15T09:00:09;6.13;;;4.78;;
71821;SDS011;64096;52.548;13.406;2024-02-15T09:02:39;10.05;;;9.05;;
71821;SDS011;64096;52.548;13.406;2024-02-15T09:05:06;8.60;;;7.70;;
71821;SDS011;64096;52.548;13.406;2024-02-15T09:07:32;6.75;;;5.30;;
71821;SDS011;64096;52.548;13.406;2024-02-15T09:09:58;5.35;;;4.07;;
71821;SDS011;64096;52.548;13.406;2024-02-15T09:12:24;6.95;;;5.07;;
71821;SDS011;64096;52.548;13.406;2024-02-15T09:14:50;10.18;;;9.07;;
71821;SDS011;64096;52.548;13.406;2024-02-15T09:17:16;6.45;;;5.35;;
71821;SDS011;64096;52.548;13.406;2024-02-15T09:19:43;7.43;;;5.15;;
71821;SDS011;64096;52.548;13.406;2024-02-15T09:22:09;5.55;;;4.30;;
71821;SDS011;64096;52.548;13.406;2024-02-15T09:24:35;6.38;;;5.07;;
71821;SDS011;64096;52.548;13.406;2024-02-15T09:27:02;5.65;;;4.20;;
71821;SDS011;64096;52.548;13.406;2024-02-15T09:29:29;6.03;;;4.65;;
71821;SDS011;64096;52.548;13.406;2024-02-15T09:31:55;7.15;;;4.95;;
71821;SDS011;64096;52.548;13.406;2024-02-15T09:34:22;5.20;;;4.03;;
71821;SDS011;64096;52.548;13.406;2024-02-15T09:36:48;5.75;;;4.40;;
71821;SDS011;64096;52.548;13.406;2024-02-15T09:39:14;5.63;;;4.10;;
71821;SDS011;64096;52.548;13.406;2024-02-15T09:41:42;5.10;;;4.07;;
71821;SDS011;64096;52.548;13.406;2024-02-15T09:44:08;5.15;;;4.25;;
71821;SDS011;64096;52.548;13.406;2024-02-15T09:46:35;5.25;;;3.88;;
71821;SDS011;64096;52.548;13.406;2024-02-15T09:49:03;5.82;;;4.07;;
71821;SDS011;64096;52.548;13.406;2024-02-15T09:51:29;5.40;;;4.15;;
71821;SDS011;64096;52.548;13.406;2024-02-15T09:53:56;6.20;;;4.10;;
71821;SDS011;64096;52.548;13.406;2024-02-15T09:56:26;6.07;;;4.20;;
71821;SDS011;64096;52.548;13.406;2024-02-15T09:58:53;5.30;;;3.83;;
71821;SDS011;64096;52.548;13.406;2024-02-15T10:01:20;5.55;;;4.07;;
71821;SDS011;64096;52.548;13.406;2024-02-15T10:03:51;5.15;;;4.00;;
71821;SDS011;64096;52.548;13.406;2024-02-15T10:06:18;4.88;;;3.72;;
71821;SDS011;64096;52.548;13.406;2024-02-15T10:08:44;5.05;;;4.00;;
71821;SDS011;64096;52.548;13.406;2024-02-15T10:11:12;5.05;;;3.83;;
71821;SDS011;64096;52.548;13.406;2024-02-15T10:13:38;5.05;;;4.03;;
71821;SDS011;64096;52.548;13.406;2024-02-15T10:16:20;5.32;;;3.80;;
71821;SDS011;64096;52.548;13.406;2024-02-15T10:18:50;7.90;;;6.65;;
71821;SDS011;64096;52.548;13.406;2024-02-15T10:21:26;6.82;;;4.75;;
71821;SDS011;64096;52.548;13.406;2024-02-15T10:24:07;5.60;;;3.92;;
71821;SDS011;64096;52.548;13.406;2024-02-15T10:26:34;5.18;;;3.65;;
71821;SDS011;64096;52.548;13.406;2024-02-15T10:31:34;9.27;;;7.22;;
71821;SDS011;64096;52.548;13.406;2024-02-15T10:34:02;7.03;;;4.90;;
71821;SDS011;64096;52.548;13.406;2024-02-15T10:36:29;7.05;;;4.30;;
71821;SDS011;64096;52.548;13.406;2024-02-15T10:39:15;6.68;;;4.30;;
71821;SDS011;64096;52.548;13.406;2024-02-15T10:44:15;5.45;;;4.15;;
71821;SDS011;64096;52.548;13.406;2024-02-15T10:46:44;5.30;;;3.78;;
71821;SDS011;64096;52.548;13.406;2024-02-15T10:49:11;5.85;;;4.05;;
71821;SDS011;64096;52.548;13.406;2024-02-15T10:51:39;14.90;;;10.27;;
71821;SDS011;64096;52.548;13.406;2024-02-15T10:54:10;6.43;;;4.20;;
71821;SDS011;64096;52.548;13.406;2024-02-15T10:56:42;4.20;;;3.13;;
71821;SDS011;64096;52.548;13.406;2024-02-15T10:59:17;4.40;;;3.20;;
71821;SDS011;64096;52.548;13.406;2024-02-15T11:01:45;5.35;;;3.42;;
71821;SDS011;64096;52.548;13.406;2024-02-15T11:04:15;4.60;;;3.03;;
71821;SDS011;64096;52.548;13.406;2024-02-15T11:06:44;4.85;;;2.83;;
71821;SDS011;64096;52.548;13.406;2024-02-15T11:09:10;3.92;;;2.65;;
71821;SDS011;64096;52.548;13.406;2024-02-15T11:11:40;4.10;;;2.78;;
71821;SDS011;64096;52.548;13.406;2024-02-15T11:14:26;3.65;;;2.50;;
71821;SDS011;64096;52.548;13.406;2024-02-15T11:16:57;3.85;;;2.72;;
71821;SDS011;64096;52.548;13.406;2024-02-15T11:22:07;4.15;;;2.78;;
71821;SDS011;64096;52.548;13.406;2024-02-15T11:24:36;4.35;;;2.85;;
71821;SDS011;64096;52.548;13.406;2024-02-15T11:27:03;5.00;;;2.90;;
71821;SDS011;64096;52.548;13.406;2024-02-15T11:35:07;4.22;;;2.67;;
71821;SDS011;64096;52.548;13.406;2024-02-15T11:40:15;3.80;;;2.35;;
71821;SDS011;64096;52.548;13.406;2024-02-15T11:42:42;3.70;;;2.35;;
71821;SDS011;64096;52.548;13.406;2024-02-15T11:45:09;3.95;;;2.60;;
71821;SDS011;64096;52.548;13.406;2024-02-15T11:47:39;3.42;;;2.10;;
71821;SDS011;64096;52.548;13.406;2024-02-15T11:50:14;3.92;;;2.30;;
71821;SDS011;64096;52.548;13.406;2024-02-15T11:52:40;3.38;;;2.25;;
71821;SDS011;64096;52.548;13.406;2024-02-15T11:55:12;3.80;;;2.40;;
71821;SDS011;64096;52.548;13.406;2024-02-15T11:57:41;3.25;;;2.30;;
71821;SDS011;64096;52.548;13.406;2024-02-15T12:00:24;4.07;;;2.53;;
71821;SDS011;64096;52.548;13.406;2024-02-15T12:03:09;5.25;;;4.20;;
71821;SDS011;64096;52.548;13.406;2024-02-15T12:05:54;5.97;;;4.60;;
71821;SDS011;64096;52.548;13.406;2024-02-15T12:08:41;5.82;;;3.60;;
71821;SDS011;64096;52.548;13.406;2024-02-15T12:11:28;4.15;;;2.38;;
71821;SDS011;64096;52.548;13.406;2024-02-15T12:14:13;3.80;;;2.53;;
71821;SDS011;64096;52.548;13.406;2024-02-15T12:17:02;4.35;;;2.50;;
71821;SDS011;64096;52.548;13.406;2024-02-15T12:19:48;4.15;;;2.53;;
71821;SDS011;64096;52.548;13.406;2024-02-15T12:22:16;4.05;;;2.47;;
71821;SDS011;64096;52.548;13.406;2024-02-15T12:24:45;3.90;;;2.45;;
71821;SDS011;64096;52.548;13.406;2024-02-15T12:27:19;6.10;;;3.42;;
71821;SDS011;64096;52.548;13.406;2024-02-15T12:29:51;5.65;;;3.22;;
71821;SDS011;64096;52.548;13.406;2024-02-15T12:32:25;5.03;;;2.58;;
71821;SDS011;64096;52.548;13.406;2024-02-15T12:34:52;3.83;;;2.38;;
71821;SDS011;64096;52.548;13.406;2024-02-15T12:37:21;3.90;;;1.92;;
71821;SDS011;64096;52.548;13.406;2024-02-15T12:39:49;3.42;;;2.13;;
71821;SDS011;64096;52.548;13.406;2024-02-15T12:42:18;3.88;;;1.98;;
71821;SDS011;64096;52.548;13.406;2024-02-15T12:44:46;2.65;;;1.88;;
71821;SDS011;64096;52.548;13.406;2024-02-15T12:47:19;3.17;;;1.88;;
71821;SDS011;64096;52.548;13.406;2024-02-15T12:49:47;3.33;;;1.92;;
71821;SDS011;64096;52.548;13.406;2024-02-15T12:55:08;4.25;;;2.80;;
71821;SDS011;64096;52.548;13.406;2024-02-15T12:57:34;6.30;;;4.88;;
71821;SDS011;64096;52.548;13.406;2024-02-15T13:00:01;3.97;;;2.67;;
71821;SDS011;64096;52.548;13.406;2024-02-15T13:02:36;4.43;;;2.20;;
71821;SDS011;64096;52.548;13.406;2024-02-15T13:05:03;3.85;;;2.30;;
71821;SDS011;64096;52.548;13.406;2024-02-15T13:07:29;4.60;;;2.10;;
71821;SDS011;64096;52.548;13.406;2024-02-15T13:09:56;3.55;;;2.10;;
71821;SDS011;64096;52.548;13.406;2024-02-15T13:12:22;4.25;;;2.72;;
71821;SDS011;64096;52.548;13.406;2024-02-15T13:14:48;3.80;;;2.20;;
71821;SDS011;64096;52.548;13.406;2024-02-15T13:17:16;3.45;;;2.25;;
71821;SDS011;64096;52.548;13.406;2024-02-15T13:19:46;4.65;;;2.92;;
71821;SDS011;64096;52.548;13.406;2024-02-15T13:22:14;4.25;;;2.35;;
71821;SDS011;64096;52.548;13.406;2024-02-15T13:24:41;3.38;;;2.38;;
71821;SDS011;64096;52.548;13.406;2024-02-15T13:27:07;4.40;;;2.60;;
71821;SDS011;64096;52.548;13.406;2024-02-15T13:29:37;3.80;;;2.10;;
71821;SDS011;64096;52.548;13.406;2024-02-15T13:32:05;4.57;;;2.50;;
71821;SDS011;64096;52.548;13.406;2024-02-15T13:34:31;4.50;;;2.55;;
71821;SDS011;64096;52.548;13.406;2024-02-15T13:37:01;3.90;;;2.50;;
71821;SDS011;64096;52.548;13.406;2024-02-15T13:39:29;4.65;;;2.80;;
71821;SDS011;64096;52.548;13.406;2024-02-15T13:42:00;4.07;;;2.47;;
71821;SDS011;64096;52.548;13.406;2024-02-15T13:44:26;4.38;;;2.30;;
71821;SDS011;64096;52.548;13.406;2024-02-15T13:46:52;3.55;;;1.80;;
71821;SDS011;64096;52.548;13.406;2024-02-15T13:49:21;3.92;;;2.20;;
71821;SDS011;64096;52.548;13.406;2024-02-15T13:51:47;4.60;;;2.25;;
71821;SDS011;64096;52.548;13.406;2024-02-15T13:54:16;4.45;;;2.50;;
71821;SDS011;64096;52.548;13.406;2024-02-15T13:56:43;3.53;;;2.30;;
71821;SDS011;64096;52.548;13.406;2024-02-15T13:59:09;3.80;;;2.20;;
